Terminal Aerodrome Forecast
Issued by NWS Houston/Galveston, TX

Home | Current Version | Previous Version | Text Only | Print | Product List | Glossary On
Versions: 1 2 3 4 5 6 7 8 9 10 11 12 13 14 15 16 17 18 19 20 21 22 23 24 25 26 27 28 29 30 31 32 33 34 35 36 37 38
000
FTUS44 KHGX 311859 AAA
TAFCLL
TAF AMD
KCLL 311859Z 3119/0118 14012G17KT P6SM SCT030 BKN040
     FM312000 14013G19KT P6SM BKN025 OVC030
     FM312300 13012KT 4SM -RA OVC015
     FM010600 15012KT P6SM OVC010
     FM011500 20007KT 4SM -RA OVC009=

USA.gov is the U.S. government's official web portal to all federal, state and local government web resources and services.